createdAt,value
2022-10-30T00:00:41.044Z,3.80
2022-10-30T00:03:11.074Z,3.42
2022-10-30T00:05:39.863Z,3.70
2022-10-30T00:08:06.677Z,3.83
2022-10-30T00:10:33.135Z,3.33
2022-10-30T00:12:59.598Z,3.83
2022-10-30T00:15:26.063Z,3.38
2022-10-30T00:17:52.525Z,3.42
2022-10-30T00:20:19.229Z,3.70
2022-10-30T00:22:47.016Z,3.42
2022-10-30T00:25:13.481Z,3.60
2022-10-30T00:27:39.955Z,3.45
2022-10-30T00:30:07.063Z,3.88
2022-10-30T00:32:33.514Z,3.33
2022-10-30T00:35:00.008Z,3.60
2022-10-30T00:37:26.798Z,3.05
2022-10-30T00:39:53.272Z,3.58
2022-10-30T00:42:19.739Z,3.35
2022-10-30T00:44:50.238Z,3.22
2022-10-30T00:47:27.360Z,3.60
2022-10-30T00:50:09.174Z,3.72
2022-10-30T00:52:37.417Z,3.58
2022-10-30T00:55:07.576Z,3.13
2022-10-30T00:57:34.325Z,3.53
2022-10-30T01:00:00.837Z,3.20
2022-10-30T01:02:27.584Z,3.35
2022-10-30T01:04:54.158Z,3.15
2022-10-30T01:07:21.700Z,3.58
2022-10-30T01:09:48.185Z,3.35
2022-10-30T01:12:15.448Z,3.30
2022-10-30T01:14:45.434Z,2.92
2022-10-30T01:17:37.153Z,3.10
2022-10-30T01:20:26.712Z,3.38
2022-10-30T01:23:31.893Z,3.40
2022-10-30T01:26:22.263Z,3.28
2022-10-30T01:29:16.276Z,3.72
2022-10-30T01:32:05.938Z,3.45
2022-10-30T01:34:47.348Z,3.45
2022-10-30T01:37:22.325Z,3.22
2022-10-30T01:39:48.844Z,3.25
2022-10-30T01:42:52.977Z,3.83
2022-10-30T01:45:30.326Z,3.07
2022-10-30T01:48:18.403Z,3.65
2022-10-30T01:51:03.830Z,3.05
2022-10-30T01:53:35.519Z,3.20
2022-10-30T01:56:11.081Z,3.70
2022-10-30T01:58:43.513Z,3.53
2022-10-30T02:01:10.024Z,3.35
2022-10-30T02:03:36.527Z,3.03
2022-10-30T02:06:03.066Z,3.03
2022-10-30T02:08:29.511Z,2.63
2022-10-30T02:10:56.301Z,3.40
2022-10-30T02:13:22.779Z,3.25
2022-10-30T02:15:49.323Z,3.47
2022-10-30T02:18:17.187Z,3.50
2022-10-30T02:20:43.693Z,2.85
2022-10-30T02:23:16.714Z,3.70
2022-10-30T02:25:43.210Z,3.60
2022-10-30T02:28:09.671Z,3.22
2022-10-30T02:30:36.135Z,3.88
2022-10-30T02:33:02.722Z,3.65
2022-10-30T02:35:29.802Z,3.20
2022-10-30T02:37:56.665Z,3.50
2022-10-30T02:40:23.323Z,3.05
2022-10-30T02:42:53.324Z,3.05
2022-10-30T02:45:20.161Z,3.20
2022-10-30T02:47:46.647Z,3.72
2022-10-30T02:50:13.288Z,3.15
2022-10-30T02:52:39.942Z,3.35
2022-10-30T02:55:06.619Z,3.58
2022-10-30T02:57:33.801Z,3.15
2022-10-30T03:00:00.342Z,3.88
2022-10-30T03:02:26.822Z,3.45
2022-10-30T03:04:53.322Z,3.55
2022-10-30T03:07:19.788Z,3.40
2022-10-30T03:09:46.249Z,3.20
2022-10-30T03:12:12.698Z,3.00
2022-10-30T03:14:39.207Z,3.25
2022-10-30T03:17:05.696Z,3.50
2022-10-30T03:19:32.189Z,3.30
2022-10-30T03:21:58.666Z,3.25
2022-10-30T03:24:25.144Z,3.38
2022-10-30T03:26:51.608Z,3.05
2022-10-30T03:29:18.063Z,3.67
2022-10-30T03:31:44.522Z,2.90
2022-10-30T03:34:11.124Z,3.40
2022-10-30T03:36:37.592Z,2.90
2022-10-30T03:39:04.632Z,3.15
2022-10-30T03:41:31.103Z,3.20
2022-10-30T03:43:57.549Z,3.33
2022-10-30T03:46:24.013Z,3.13
2022-10-30T03:48:50.648Z,3.58
2022-10-30T03:51:17.199Z,3.13
2022-10-30T03:53:43.673Z,3.50
2022-10-30T03:56:10.162Z,3.20
2022-10-30T03:58:36.614Z,3.00
2022-10-30T04:01:06.800Z,3.00
2022-10-30T04:03:33.326Z,3.17
2022-10-30T04:05:59.865Z,3.05
2022-10-30T04:08:26.342Z,3.30
2022-10-30T04:10:52.842Z,3.28
2022-10-30T04:13:20.360Z,3.10
2022-10-30T04:15:56.115Z,3.00
2022-10-30T04:18:24.462Z,3.60
2022-10-30T04:20:50.938Z,3.00
2022-10-30T04:23:18.539Z,3.47
2022-10-30T04:25:45.100Z,3.28
2022-10-30T04:28:11.646Z,3.00
2022-10-30T04:30:39.420Z,3.10
2022-10-30T04:33:07.189Z,3.33
2022-10-30T04:35:34.759Z,3.53
2022-10-30T04:38:08.280Z,3.50
2022-10-30T04:40:36.024Z,3.20
2022-10-30T04:43:05.220Z,3.13
2022-10-30T04:45:31.893Z,3.15
2022-10-30T04:48:11.561Z,3.42
2022-10-30T04:50:38.875Z,3.25
2022-10-30T04:53:13.963Z,3.30
2022-10-30T04:55:40.430Z,3.13
2022-10-30T04:58:08.122Z,3.50
2022-10-30T05:00:35.098Z,3.45
2022-10-30T05:03:01.755Z,3.55
2022-10-30T05:05:29.191Z,3.30
2022-10-30T05:07:55.989Z,3.75
2022-10-30T05:10:22.779Z,3.30
2022-10-30T05:12:51.690Z,3.10
2022-10-30T05:15:18.151Z,3.35
2022-10-30T05:17:44.603Z,2.80
2022-10-30T05:20:14.742Z,3.40
2022-10-30T05:22:42.874Z,3.50
2022-10-30T05:25:09.656Z,3.08
2022-10-30T05:27:36.123Z,3.20
2022-10-30T05:30:02.589Z,3.42
2022-10-30T05:32:29.061Z,3.10
2022-10-30T05:34:55.568Z,2.95
2022-10-30T05:37:22.072Z,3.53
2022-10-30T05:39:48.885Z,3.70
2022-10-30T05:42:15.364Z,3.53
2022-10-30T05:44:59.701Z,3.50
2022-10-30T05:47:27.151Z,3.63
2022-10-30T05:49:53.611Z,2.85
2022-10-30T05:52:20.076Z,3.13
2022-10-30T05:54:46.612Z,3.47
2022-10-30T05:57:13.067Z,3.47
2022-10-30T05:59:39.523Z,3.78
2022-10-30T06:02:06.029Z,3.10
2022-10-30T06:04:32.542Z,3.35
2022-10-30T06:06:59.005Z,3.47
2022-10-30T06:09:25.457Z,3.22
2022-10-30T06:11:51.941Z,3.20
2022-10-30T06:14:18.393Z,3.42
2022-10-30T06:16:44.896Z,3.88
2022-10-30T06:19:15.650Z,3.55
2022-10-30T06:24:12.067Z,3.00
2022-10-30T06:26:38.545Z,3.28
2022-10-30T06:29:05.023Z,3.28
2022-10-30T06:31:31.500Z,3.50
2022-10-30T06:33:58.036Z,3.42
2022-10-30T06:36:24.509Z,3.55
2022-10-30T06:38:50.982Z,3.88
2022-10-30T06:41:17.441Z,3.47
2022-10-30T06:43:43.934Z,3.13
2022-10-30T06:46:10.458Z,3.15
2022-10-30T06:48:36.918Z,3.50
2022-10-30T06:51:03.459Z,3.58
2022-10-30T06:53:29.933Z,3.22
2022-10-30T06:56:00.492Z,3.08
2022-10-30T06:58:27.282Z,3.53
2022-10-30T07:00:53.777Z,3.45
2022-10-30T07:03:20.270Z,3.45
2022-10-30T07:05:46.792Z,3.63
2022-10-30T07:08:13.291Z,3.33
2022-10-30T07:10:39.879Z,3.40
2022-10-30T07:13:06.355Z,3.58
2022-10-30T07:15:32.870Z,3.40
2022-10-30T07:18:03.314Z,3.58
2022-10-30T07:20:32.141Z,3.30
2022-10-30T07:22:58.722Z,3.58
2022-10-30T07:25:25.271Z,3.38
2022-10-30T07:27:52.145Z,3.55
2022-10-30T07:33:01.967Z,3.75
2022-10-30T07:35:29.001Z,3.25
2022-10-30T07:37:55.595Z,3.58
2022-10-30T07:40:22.211Z,3.10
2022-10-30T07:42:48.663Z,3.38
2022-10-30T07:45:15.230Z,3.50
2022-10-30T07:47:45.134Z,3.50
2022-10-30T07:50:11.813Z,3.00
2022-10-30T07:52:38.321Z,3.80
2022-10-30T07:55:05.287Z,3.85
2022-10-30T07:57:38.509Z,3.40
2022-10-30T08:00:06.073Z,12.70
2022-10-30T08:02:32.753Z,9.45
2022-10-30T08:04:59.319Z,5.82
2022-10-30T08:07:36.254Z,5.60
2022-10-30T08:10:02.906Z,5.00
2022-10-30T08:12:29.381Z,4.80
2022-10-30T08:14:55.854Z,6.30
2022-10-30T08:17:22.322Z,6.93
2022-10-30T08:19:49.374Z,6.30
2022-10-30T08:22:15.830Z,5.30
2022-10-30T08:24:42.313Z,5.45
2022-10-30T08:27:09.463Z,4.60
2022-10-30T08:29:35.936Z,4.75
2022-10-30T08:32:02.391Z,4.93
2022-10-30T08:34:31.593Z,4.57
2022-10-30T08:36:58.420Z,4.95
2022-10-30T08:39:24.884Z,4.57
2022-10-30T08:41:51.337Z,4.43
2022-10-30T08:44:17.793Z,4.90
2022-10-30T08:46:44.259Z,4.78
2022-10-30T08:49:10.716Z,5.35
2022-10-30T08:51:37.194Z,4.53
2022-10-30T08:54:03.766Z,4.60
2022-10-30T08:56:30.238Z,4.63
2022-10-30T08:58:56.695Z,4.65
2022-10-30T09:01:23.288Z,4.72
2022-10-30T09:03:49.862Z,4.30
2022-10-30T09:06:16.326Z,4.38
2022-10-30T09:08:42.833Z,4.68
2022-10-30T09:11:09.353Z,4.22
2022-10-30T09:13:35.800Z,4.22
2022-10-30T09:16:02.449Z,4.30
2022-10-30T09:18:29.129Z,4.20
2022-10-30T09:20:55.633Z,4.35
2022-10-30T09:23:22.474Z,4.22
2022-10-30T09:25:48.942Z,4.47
2022-10-30T09:28:15.395Z,3.85
2022-10-30T09:30:42.140Z,4.20
2022-10-30T09:33:08.727Z,3.88
2022-10-30T09:35:37.013Z,3.97
2022-10-30T09:38:03.636Z,4.68
2022-10-30T09:40:37.634Z,3.83
2022-10-30T09:46:20.033Z,4.25
2022-10-30T09:49:04.635Z,3.60
2022-10-30T09:51:49.012Z,3.70
2022-10-30T09:57:09.797Z,3.72
2022-10-30T09:59:45.557Z,3.55
2022-10-30T10:02:58.169Z,3.95
2022-10-30T10:05:27.102Z,4.32
2022-10-30T10:07:57.293Z,3.78
2022-10-30T10:10:32.593Z,4.18
2022-10-30T10:13:01.497Z,3.83
2022-10-30T10:15:49.900Z,3.75
2022-10-30T10:18:23.900Z,3.97
2022-10-30T10:23:33.815Z,3.42
2022-10-30T10:26:00.728Z,3.47
2022-10-30T10:28:56.566Z,3.67
2022-10-30T10:31:22.934Z,3.70
2022-10-30T10:34:16.999Z,3.75
2022-10-30T10:37:08.181Z,3.15
2022-10-30T10:40:15.007Z,3.50
2022-10-30T10:43:14.327Z,3.78
2022-10-30T10:45:56.428Z,3.25
2022-10-30T10:48:52.986Z,4.25
2022-10-30T10:51:29.922Z,3.80
2022-10-30T10:54:05.779Z,3.60
2022-10-30T10:56:36.846Z,3.30
2022-10-30T10:59:04.823Z,4.07
2022-10-30T11:01:39.838Z,3.22
2022-10-30T11:04:09.015Z,4.00
2022-10-30T11:06:36.317Z,3.40
2022-10-30T11:09:22.047Z,3.70
2022-10-30T11:11:49.376Z,3.70
2022-10-30T11:14:27.938Z,3.53
2022-10-30T11:17:12.851Z,3.47
2022-10-30T11:19:39.334Z,3.90
2022-10-30T11:22:38.397Z,4.13
2022-10-30T11:25:26.922Z,3.22
2022-10-30T11:27:58.126Z,3.45
2022-10-30T11:30:26.376Z,3.13
2022-10-30T11:32:55.401Z,3.95
2022-10-30T11:35:23.606Z,4.05
2022-10-30T11:38:10.896Z,3.65
2022-10-30T11:40:37.417Z,3.40
2022-10-30T11:43:04.421Z,3.53
2022-10-30T11:45:32.682Z,3.55
2022-10-30T11:48:02.452Z,3.70
2022-10-30T11:50:30.674Z,3.78
2022-10-30T11:53:21.708Z,3.30
2022-10-30T11:55:48.305Z,3.65
2022-10-30T11:58:29.459Z,3.13
2022-10-30T12:01:06.099Z,3.50
2022-10-30T12:03:39.597Z,3.58
2022-10-30T12:06:20.018Z,3.83
2022-10-30T12:09:00.378Z,3.70
2022-10-30T12:11:34.101Z,3.25
2022-10-30T12:14:00.610Z,3.30
2022-10-30T12:16:27.242Z,3.53
2022-10-30T12:19:02.507Z,3.60
2022-10-30T12:21:38.936Z,3.55
2022-10-30T12:24:10.607Z,3.67
2022-10-30T12:26:37.104Z,4.00
2022-10-30T12:29:12.411Z,3.92
2022-10-30T12:31:40.937Z,3.42
2022-10-30T12:34:25.124Z,3.30
2022-10-30T12:36:55.466Z,3.85
2022-10-30T12:39:23.778Z,3.10
2022-10-30T12:42:10.766Z,3.17
2022-10-30T12:44:42.510Z,3.45
2022-10-30T12:47:11.310Z,3.42
2022-10-30T12:50:13.267Z,3.40
2022-10-30T12:52:59.683Z,3.50
2022-10-30T12:55:34.682Z,3.28
2022-10-30T12:58:14.579Z,3.50
2022-10-30T13:00:55.876Z,3.33
2022-10-30T13:03:26.439Z,3.38
2022-10-30T13:05:59.941Z,3.58
2022-10-30T13:08:30.897Z,3.30
2022-10-30T13:11:09.786Z,3.40
2022-10-30T13:13:50.030Z,3.35
2022-10-30T13:16:37.675Z,3.38
2022-10-30T13:19:05.770Z,3.42
2022-10-30T13:21:46.737Z,3.28
2022-10-30T13:24:18.107Z,3.53
2022-10-30T13:26:53.194Z,3.60
2022-10-30T13:29:29.849Z,4.10
2022-10-30T13:32:20.635Z,3.28
2022-10-30T13:35:18.318Z,3.50
2022-10-30T13:38:03.144Z,3.50
2022-10-30T13:40:33.838Z,3.78
2022-10-30T13:43:06.921Z,3.47
2022-10-30T13:45:44.623Z,3.73
2022-10-30T13:48:20.581Z,4.07
2022-10-30T13:50:58.563Z,2.92
2022-10-30T13:53:26.771Z,3.30
2022-10-30T13:55:53.228Z,3.55
2022-10-30T13:58:28.355Z,3.42
2022-10-30T14:00:57.763Z,3.58
2022-10-30T14:03:48.444Z,3.63
2022-10-30T14:06:33.708Z,3.67
2022-10-30T14:09:19.745Z,3.60
2022-10-30T14:11:46.290Z,3.58
2022-10-30T14:14:12.625Z,3.95
2022-10-30T14:16:42.815Z,3.38
2022-10-30T14:19:12.935Z,3.47
2022-10-30T14:21:52.814Z,3.42
2022-10-30T14:24:21.740Z,3.53
2022-10-30T14:27:03.228Z,3.40
2022-10-30T14:29:36.010Z,3.28
2022-10-30T14:32:14.459Z,3.38
2022-10-30T14:34:50.203Z,3.58
2022-10-30T14:37:22.606Z,3.88
2022-10-30T14:39:50.218Z,3.95
2022-10-30T14:42:20.182Z,3.47
2022-10-30T14:45:01.260Z,3.30
2022-10-30T14:47:42.877Z,3.25
2022-10-30T14:50:27.592Z,3.55
2022-10-30T14:52:57.376Z,3.20
2022-10-30T14:55:55.402Z,3.53
2022-10-30T14:58:29.855Z,3.33
2022-10-30T15:01:18.987Z,3.97
2022-10-30T15:04:09.556Z,3.60
2022-10-30T15:06:48.070Z,3.65
2022-10-30T15:09:23.930Z,3.67
2022-10-30T15:12:08.657Z,3.60
2022-10-30T15:14:53.411Z,3.67
2022-10-30T15:17:28.352Z,3.85
2022-10-30T15:19:54.861Z,3.58
2022-10-30T15:22:21.962Z,3.83
2022-10-30T15:24:48.495Z,3.28
2022-10-30T15:27:17.277Z,3.38
2022-10-30T15:29:45.473Z,3.65
2022-10-30T15:32:19.696Z,3.63
2022-10-30T15:35:02.816Z,3.75
2022-10-30T15:37:29.443Z,3.42
2022-10-30T15:40:14.166Z,3.40
2022-10-30T15:42:40.692Z,3.38
2022-10-30T15:45:17.379Z,3.40
2022-10-30T15:47:46.330Z,3.13
2022-10-30T15:50:12.863Z,3.15
2022-10-30T15:52:40.232Z,3.55
2022-10-30T15:55:07.863Z,3.45
2022-10-30T16:00:30.561Z,3.60
2022-10-30T16:03:04.554Z,3.85
2022-10-30T16:07:58.770Z,3.20
2022-10-30T16:10:32.340Z,3.60
2022-10-30T16:12:59.087Z,3.40
2022-10-30T16:15:35.934Z,3.40
2022-10-30T16:18:10.325Z,3.17
2022-10-30T16:20:37.094Z,3.20
2022-10-30T16:23:03.994Z,3.00
2022-10-30T16:25:32.600Z,4.00
2022-10-30T16:27:59.282Z,3.25
2022-10-30T16:30:29.405Z,3.58
2022-10-30T16:32:56.075Z,3.28
2022-10-30T16:35:23.084Z,3.33
2022-10-30T16:37:50.596Z,3.40
2022-10-30T16:40:19.373Z,3.33
2022-10-30T16:42:53.165Z,3.40
2022-10-30T16:45:19.520Z,3.20
2022-10-30T16:47:46.913Z,3.45
2022-10-30T16:50:15.277Z,3.28
2022-10-30T16:52:41.751Z,3.30
2022-10-30T16:55:13.096Z,3.00
2022-10-30T16:57:43.793Z,3.03
2022-10-30T17:00:27.537Z,3.67
2022-10-30T17:02:55.421Z,2.90
2022-10-30T17:05:29.105Z,2.97
2022-10-30T17:08:00.079Z,3.72
2022-10-30T17:10:42.633Z,3.50
2022-10-30T17:13:31.832Z,3.72
2022-10-30T17:15:58.768Z,4.95
2022-10-30T17:18:31.338Z,5.50
2022-10-30T17:21:06.572Z,5.95
2022-10-30T17:23:33.355Z,6.07
2022-10-30T17:25:59.823Z,5.82
2022-10-30T17:28:33.151Z,5.70
2022-10-30T17:31:19.386Z,5.65
2022-10-30T17:33:46.427Z,6.32
2022-10-30T17:36:12.913Z,5.97
2022-10-30T17:38:39.457Z,5.60
2022-10-30T17:41:06.970Z,5.32
2022-10-30T17:43:34.820Z,5.20
2022-10-30T17:46:01.451Z,5.60
2022-10-30T17:48:28.642Z,5.38
2022-10-30T17:50:55.428Z,5.40
2022-10-30T17:53:25.359Z,5.18
2022-10-30T17:56:06.487Z,4.85
2022-10-30T17:58:33.366Z,4.78
2022-10-30T18:00:59.966Z,4.95
2022-10-30T18:03:26.442Z,4.63
2022-10-30T18:05:53.129Z,5.68
2022-10-30T18:08:19.643Z,4.72
2022-10-30T18:10:46.224Z,4.63
2022-10-30T18:13:13.629Z,4.63
2022-10-30T18:15:44.817Z,4.72
2022-10-30T18:18:11.310Z,4.45
2022-10-30T18:20:38.719Z,4.55
2022-10-30T18:23:12.717Z,4.75
2022-10-30T18:25:46.882Z,4.10
2022-10-30T18:28:13.339Z,4.43
2022-10-30T18:30:39.871Z,4.68
2022-10-30T18:33:06.362Z,4.03
2022-10-30T18:35:36.831Z,4.03
2022-10-30T18:38:03.677Z,4.38
2022-10-30T18:40:30.164Z,3.83
2022-10-30T18:42:56.986Z,4.45
2022-10-30T18:45:25.543Z,4.10
2022-10-30T18:47:52.342Z,3.92
2022-10-30T18:50:19.720Z,4.40
2022-10-30T18:52:46.245Z,4.90
2022-10-30T18:55:17.288Z,4.05
2022-10-30T18:57:44.167Z,4.32
2022-10-30T19:00:11.113Z,4.07
2022-10-30T19:02:37.812Z,3.55
2022-10-30T19:05:27.113Z,3.50
2022-10-30T19:07:54.183Z,4.05
2022-10-30T19:10:20.745Z,3.63
2022-10-30T19:13:11.045Z,4.03
2022-10-30T19:15:35.143Z,3.45
2022-10-30T19:18:02.182Z,4.10
2022-10-30T19:20:44.056Z,3.97
2022-10-30T19:23:20.607Z,3.47
2022-10-30T19:25:47.712Z,4.05
2022-10-30T19:28:14.926Z,3.38
2022-10-30T19:30:41.705Z,3.78
2022-10-30T19:33:09.124Z,3.38
2022-10-30T19:35:35.573Z,3.72
2022-10-30T19:38:02.983Z,4.07
2022-10-30T19:40:33.633Z,3.55
2022-10-30T19:43:00.317Z,3.47
2022-10-30T19:45:28.847Z,3.30
2022-10-30T19:47:56.771Z,3.65
2022-10-30T19:50:39.134Z,3.45
2022-10-30T19:53:05.982Z,3.95
2022-10-30T19:55:33.939Z,3.75
2022-10-30T19:58:00.796Z,3.80
2022-10-30T20:00:32.307Z,4.07
2022-10-30T20:02:59.235Z,3.40
2022-10-30T20:05:27.717Z,3.50
2022-10-30T20:08:05.435Z,3.33
2022-10-30T20:10:33.135Z,3.72
2022-10-30T20:12:59.680Z,3.60
2022-10-30T20:15:27.348Z,3.92
2022-10-30T20:17:53.913Z,4.40
2022-10-30T20:20:22.887Z,4.53
2022-10-30T20:22:51.159Z,4.80
2022-10-30T20:25:17.841Z,6.22
2022-10-30T20:27:44.721Z,6.03
2022-10-30T20:30:14.316Z,6.03
2022-10-30T20:32:40.792Z,5.90
2022-10-30T20:35:10.429Z,6.05
2022-10-30T20:37:37.937Z,6.30
2022-10-30T20:40:04.884Z,8.00
2022-10-30T20:42:36.964Z,7.68
2022-10-30T20:45:04.358Z,7.68
2022-10-30T20:47:30.835Z,7.75
2022-10-30T20:49:57.323Z,7.60
2022-10-30T20:52:23.809Z,7.55
2022-10-30T20:54:50.374Z,7.00
2022-10-30T20:57:17.968Z,7.53
2022-10-30T20:59:44.782Z,7.45
2022-10-30T21:02:11.596Z,7.03
2022-10-30T21:04:38.148Z,6.60
2022-10-30T21:07:04.609Z,6.53
2022-10-30T21:09:31.061Z,6.20
2022-10-30T21:11:57.543Z,6.00
2022-10-30T21:14:24.008Z,6.10
2022-10-30T21:16:50.530Z,5.40
2022-10-30T21:19:16.993Z,5.90
2022-10-30T21:21:43.468Z,5.80
2022-10-30T21:24:10.008Z,5.22
2022-10-30T21:26:37.726Z,5.50
2022-10-30T21:29:05.046Z,5.78
2022-10-30T21:31:31.548Z,5.18
2022-10-30T21:33:58.001Z,5.28
2022-10-30T21:36:24.824Z,5.35
2022-10-30T21:38:51.273Z,5.13
2022-10-30T21:41:19.977Z,4.60
2022-10-30T21:43:50.898Z,4.82
2022-10-30T21:46:17.392Z,4.82
2022-10-30T21:48:43.851Z,4.53
2022-10-30T21:51:12.398Z,4.30
2022-10-30T21:53:39.024Z,4.88
2022-10-30T21:56:16.319Z,4.32
2022-10-30T21:58:42.804Z,3.97
2022-10-30T22:01:16.321Z,3.70
2022-10-30T22:03:42.867Z,3.90
2022-10-30T22:06:11.214Z,4.40
2022-10-30T22:08:37.860Z,3.83
2022-10-30T22:11:08.645Z,3.90
2022-10-30T22:13:35.335Z,3.42
2022-10-30T22:16:02.049Z,3.17
2022-10-30T22:18:28.550Z,3.85
2022-10-30T22:21:21.549Z,3.53
2022-10-30T22:23:48.025Z,3.65
2022-10-30T22:26:18.659Z,3.28
2022-10-30T22:28:45.222Z,3.15
2022-10-30T22:31:13.407Z,3.03
2022-10-30T22:33:39.927Z,3.03
2022-10-30T22:36:13.019Z,2.83
2022-10-30T22:38:39.490Z,3.92
2022-10-30T22:41:08.666Z,3.05
2022-10-30T22:43:35.133Z,2.78
2022-10-30T22:46:02.028Z,3.25
2022-10-30T22:48:29.061Z,3.28
2022-10-30T22:50:59.444Z,2.97
2022-10-30T22:53:26.701Z,3.10
2022-10-30T22:55:53.285Z,3.30
2022-10-30T22:58:19.775Z,2.75
2022-10-30T23:00:46.241Z,2.45
2022-10-30T23:03:12.843Z,2.88
2022-10-30T23:05:39.322Z,3.05
2022-10-30T23:08:05.827Z,3.15
2022-10-30T23:10:32.323Z,2.72
2022-10-30T23:12:59.064Z,2.55
2022-10-30T23:15:25.722Z,2.78
2022-10-30T23:17:52.188Z,2.70
2022-10-30T23:20:18.693Z,2.30
2022-10-30T23:22:45.146Z,2.67
2022-10-30T23:25:11.609Z,2.45
2022-10-30T23:27:38.079Z,2.80
2022-10-30T23:30:04.972Z,2.50
2022-10-30T23:32:31.427Z,2.38
2022-10-30T23:34:57.878Z,2.30
2022-10-30T23:37:24.327Z,3.10
2022-10-30T23:39:50.818Z,2.28
2022-10-30T23:42:17.273Z,2.20
2022-10-30T23:44:43.727Z,2.38
2022-10-30T23:47:10.182Z,2.25
2022-10-30T23:49:36.639Z,2.38
2022-10-30T23:52:03.120Z,2.35
2022-10-30T23:54:29.623Z,2.17
2022-10-30T23:56:56.090Z,2.30
2022-10-30T23:59:22.562Z,2.33
